createdAt,value
2018-05-09T00:01:58.358Z,24.20
2018-05-09T00:04:34.111Z,24.20
2018-05-09T00:07:08.529Z,24.20
2018-05-09T00:09:43.710Z,24.20
2018-05-09T00:12:18.929Z,24.20
2018-05-09T00:14:53.252Z,24.20
2018-05-09T00:17:27.548Z,24.20
2018-05-09T00:20:02.801Z,24.20
2018-05-09T00:22:37.250Z,24.20
2018-05-09T00:25:11.588Z,24.20
2018-05-09T00:27:45.847Z,24.20
2018-05-09T00:30:20.326Z,24.20
2018-05-09T00:32:54.622Z,24.20
2018-05-09T00:35:28.918Z,24.20
2018-05-09T00:38:03.353Z,24.10
2018-05-09T00:40:38.502Z,24.10
2018-05-09T00:43:13.037Z,24.10
2018-05-09T00:45:48.151Z,24.10
2018-05-09T00:48:22.660Z,24.10
2018-05-09T00:50:57.017Z,24.10
2018-05-09T00:53:31.306Z,24.10
2018-05-09T00:56:05.669Z,24.10
2018-05-09T00:58:40.783Z,24.10
2018-05-09T01:01:15.065Z,24.10
2018-05-09T01:03:49.629Z,24.10
2018-05-09T01:06:24.146Z,24.10
2018-05-09T01:08:58.405Z,24.10
2018-05-09T01:11:32.758Z,24.10
2018-05-09T01:14:07.352Z,24.10
2018-05-09T01:16:41.841Z,24.10
2018-05-09T01:19:16.380Z,24.00
2018-05-09T01:21:50.889Z,24.00
2018-05-09T01:24:25.399Z,24.00
2018-05-09T01:26:59.756Z,24.00
2018-05-09T01:29:34.119Z,24.00
2018-05-09T01:32:08.661Z,24.00
2018-05-09T01:34:43.183Z,24.00
2018-05-09T01:37:18.308Z,24.00
2018-05-09T01:39:52.640Z,24.00
2018-05-09T01:42:26.918Z,24.00
2018-05-09T01:45:01.242Z,24.00
2018-05-09T01:47:35.562Z,24.00
2018-05-09T01:50:09.930Z,23.90
2018-05-09T01:52:44.306Z,23.90
2018-05-09T01:55:18.650Z,23.90
2018-05-09T01:57:52.995Z,23.90
2018-05-09T02:00:27.488Z,23.90
2018-05-09T02:03:01.898Z,23.90
2018-05-09T02:05:37.024Z,23.90
2018-05-09T02:08:11.311Z,23.90
2018-05-09T02:10:45.705Z,23.90
2018-05-09T02:13:19.982Z,23.90
2018-05-09T02:15:54.358Z,23.90
2018-05-09T02:18:28.794Z,23.90
2018-05-09T02:21:03.298Z,23.80
2018-05-09T02:23:37.892Z,23.90
2018-05-09T02:26:12.220Z,23.80
2018-05-09T02:28:46.757Z,23.80
2018-05-09T02:31:21.261Z,23.80
2018-05-09T02:33:55.698Z,23.80
2018-05-09T02:36:29.964Z,23.80
2018-05-09T02:39:04.398Z,23.80
2018-05-09T02:41:38.913Z,23.80
2018-05-09T02:44:13.222Z,23.80
2018-05-09T02:46:47.626Z,23.70
2018-05-09T02:49:21.944Z,23.80
2018-05-09T02:51:56.436Z,23.80
2018-05-09T02:54:30.962Z,23.80
2018-05-09T02:57:05.235Z,23.80
2018-05-09T02:59:40.507Z,23.70
2018-05-09T03:02:14.917Z,23.70
2018-05-09T03:04:50.029Z,23.70
2018-05-09T03:07:24.478Z,23.70
2018-05-09T03:09:58.897Z,23.70
2018-05-09T03:12:33.178Z,23.70
2018-05-09T03:15:07.504Z,23.70
2018-05-09T03:17:42.548Z,23.70
2018-05-09T03:20:16.881Z,23.60
2018-05-09T03:22:51.317Z,23.70
2018-05-09T03:25:25.649Z,23.70
2018-05-09T03:27:59.920Z,23.70
2018-05-09T03:30:34.236Z,23.70
2018-05-09T03:33:08.530Z,23.60
2018-05-09T03:35:42.837Z,23.70
2018-05-09T03:38:17.427Z,23.70
2018-05-09T03:40:51.845Z,23.70
2018-05-09T03:43:26.252Z,23.70
2018-05-09T03:46:00.683Z,23.70
2018-05-09T03:48:35.021Z,23.70
2018-05-09T03:51:10.108Z,23.70
2018-05-09T03:53:44.461Z,23.70
2018-05-09T03:56:18.928Z,23.70
2018-05-09T03:58:53.992Z,23.70
2018-05-09T04:01:28.550Z,23.70
2018-05-09T04:04:15.643Z,23.70
2018-05-09T04:07:02.054Z,23.70
2018-05-09T04:44:19.029Z,23.60
2018-05-09T04:46:53.375Z,23.60
2018-05-09T04:49:27.748Z,23.60
2018-05-09T04:52:02.132Z,23.60
2018-05-09T04:54:37.285Z,23.60
2018-05-09T04:57:11.721Z,23.60
2018-05-09T04:59:46.133Z,23.60
2018-05-09T05:02:20.417Z,23.60
2018-05-09T05:04:54.896Z,23.60
2018-05-09T05:07:29.327Z,23.60
2018-05-09T05:10:03.734Z,23.60
2018-05-09T05:12:38.071Z,23.70
2018-05-09T05:15:12.354Z,23.60
2018-05-09T05:17:47.502Z,23.60
2018-05-09T05:20:21.843Z,23.60
2018-05-09T05:22:56.981Z,23.70
2018-05-09T05:25:31.390Z,23.60
2018-05-09T05:28:05.722Z,23.60
2018-05-09T05:30:40.160Z,23.60
2018-05-09T05:33:14.644Z,23.60
2018-05-09T05:35:48.964Z,23.60
2018-05-09T05:38:23.450Z,23.60
2018-05-09T05:40:57.775Z,23.60
2018-05-09T05:43:32.139Z,23.60
2018-05-09T05:46:06.539Z,23.60
2018-05-09T05:48:40.871Z,23.60
2018-05-09T05:51:15.174Z,23.60
2018-05-09T05:53:49.469Z,23.60
2018-05-09T05:56:23.791Z,23.60
2018-05-09T05:58:58.269Z,23.60
2018-05-09T06:01:32.552Z,23.60
2018-05-09T06:04:07.813Z,23.60
2018-05-09T06:06:43.101Z,23.70
2018-05-09T06:09:17.561Z,23.70
2018-05-09T06:11:51.968Z,23.70
2018-05-09T06:14:26.431Z,23.70
2018-05-09T06:17:00.786Z,23.70
2018-05-09T06:19:35.253Z,23.70
2018-05-09T06:22:09.581Z,23.80
2018-05-09T06:24:43.949Z,23.80
2018-05-09T06:27:18.385Z,23.80
2018-05-09T06:29:52.746Z,23.70
2018-05-09T06:32:27.190Z,23.70
2018-05-09T06:35:01.656Z,23.70
2018-05-09T06:37:36.257Z,23.70
2018-05-09T06:40:10.641Z,23.70
2018-05-09T06:42:44.943Z,23.70
2018-05-09T06:45:20.194Z,23.70
2018-05-09T06:47:54.562Z,23.70
2018-05-09T06:50:28.972Z,23.80
2018-05-09T06:53:03.450Z,23.80
2018-05-09T06:55:37.851Z,23.80
2018-05-09T06:58:12.440Z,23.80
2018-05-09T07:00:47.029Z,23.80
2018-05-09T07:03:21.387Z,23.80
2018-05-09T07:05:55.737Z,23.80
2018-05-09T07:08:30.027Z,23.80
2018-05-09T07:11:04.574Z,23.80
2018-05-09T07:13:39.070Z,23.90
2018-05-09T07:16:15.056Z,23.90
2018-05-09T07:18:49.470Z,23.80
2018-05-09T07:21:23.886Z,23.90
2018-05-09T07:23:58.193Z,23.90
2018-05-09T07:26:32.502Z,23.80
2018-05-09T07:29:06.847Z,23.90
2018-05-09T07:31:41.260Z,23.90
2018-05-09T07:34:15.565Z,23.90
2018-05-09T07:36:50.032Z,24.00
2018-05-09T07:39:25.189Z,24.00
2018-05-09T07:41:59.622Z,23.90
2018-05-09T07:44:33.944Z,24.00
2018-05-09T07:47:09.049Z,24.20
2018-05-09T07:49:43.560Z,24.20
2018-05-09T07:52:17.984Z,24.40
2018-05-09T07:54:52.460Z,24.40
2018-05-09T07:57:27.609Z,24.70
2018-05-09T08:00:02.095Z,24.60
2018-05-09T08:02:36.619Z,24.80
2018-05-09T08:05:11.932Z,25.00
2018-05-09T08:07:46.380Z,25.00
2018-05-09T08:10:20.859Z,25.10
2018-05-09T08:12:55.221Z,25.20
2018-05-09T08:15:29.500Z,25.20
2018-05-09T08:18:03.981Z,25.30
2018-05-09T08:20:38.336Z,25.30
2018-05-09T08:23:12.797Z,25.50
2018-05-09T08:25:47.197Z,25.50
2018-05-09T08:28:21.602Z,25.60
2018-05-09T08:30:55.928Z,25.70
2018-05-09T08:33:30.267Z,25.70
2018-05-09T08:36:04.858Z,25.80
2018-05-09T08:38:39.278Z,25.80
2018-05-09T08:41:13.804Z,25.90
2018-05-09T08:43:48.221Z,25.90
2018-05-09T08:46:23.365Z,26.00
2018-05-09T08:48:57.789Z,26.00
2018-05-09T08:51:32.284Z,26.10
2018-05-09T08:54:06.727Z,26.10
2018-05-09T08:56:41.170Z,26.10
2018-05-09T08:59:15.545Z,26.20
2018-05-09T09:01:49.863Z,26.30
2018-05-09T09:04:24.320Z,26.30
2018-05-09T09:06:58.632Z,26.30
2018-05-09T09:09:33.017Z,26.40
2018-05-09T09:12:07.329Z,26.40
2018-05-09T09:14:41.786Z,26.60
2018-05-09T09:17:16.050Z,26.60
2018-05-09T09:19:50.310Z,26.60
2018-05-09T09:22:24.723Z,26.60
2018-05-09T09:24:59.157Z,26.60
2018-05-09T09:27:33.465Z,26.60
2018-05-09T09:30:07.798Z,26.60
2018-05-09T09:32:42.308Z,26.50
2018-05-09T09:35:16.683Z,26.30
2018-05-09T09:37:51.040Z,26.20
2018-05-09T09:40:25.385Z,26.10
2018-05-09T09:42:59.740Z,26.20
2018-05-09T09:45:34.945Z,26.10
2018-05-09T09:48:09.300Z,26.10
2018-05-09T09:50:43.852Z,26.10
2018-05-09T09:53:18.101Z,26.00
2018-05-09T09:55:53.336Z,26.00
2018-05-09T09:58:28.590Z,26.00
2018-05-09T10:01:02.911Z,26.00
2018-05-09T10:03:37.279Z,26.00
2018-05-09T10:06:11.673Z,26.00
2018-05-09T10:08:46.060Z,26.00
2018-05-09T10:11:20.447Z,26.10
2018-05-09T10:13:54.934Z,26.00
2018-05-09T10:16:29.431Z,26.00
2018-05-09T10:19:04.781Z,25.90
2018-05-09T10:21:39.061Z,25.90
2018-05-09T10:24:13.559Z,25.90
2018-05-09T10:26:48.628Z,25.90
2018-05-09T10:29:23.088Z,25.90
2018-05-09T10:31:57.367Z,25.90
2018-05-09T10:34:31.790Z,25.90
2018-05-09T10:37:07.159Z,25.90
2018-05-09T10:39:41.468Z,26.00
2018-05-09T10:42:15.793Z,26.00
2018-05-09T10:44:50.142Z,26.00
2018-05-09T10:47:24.562Z,26.00
2018-05-09T10:49:59.707Z,26.00
2018-05-09T10:52:34.197Z,26.00
2018-05-09T10:55:08.935Z,26.00
2018-05-09T10:57:43.379Z,26.00
2018-05-09T11:00:17.638Z,26.00
2018-05-09T11:02:51.969Z,26.00
2018-05-09T11:05:26.591Z,26.10
2018-05-09T11:08:01.222Z,26.00
2018-05-09T11:10:35.578Z,26.10
2018-05-09T11:13:10.632Z,26.10
2018-05-09T11:15:46.434Z,26.10
2018-05-09T11:18:20.954Z,26.10
2018-05-09T11:20:55.357Z,26.10
2018-05-09T11:23:29.764Z,26.10
2018-05-09T11:26:04.280Z,26.00
2018-05-09T11:28:38.612Z,26.20
2018-05-09T11:31:12.963Z,26.30
2018-05-09T11:33:47.589Z,26.10
2018-05-09T11:36:22.205Z,26.10
2018-05-09T11:38:56.593Z,26.20
2018-05-09T11:41:30.870Z,26.20
2018-05-09T11:44:05.953Z,26.20
2018-05-09T11:46:40.364Z,26.20
2018-05-09T11:49:14.781Z,26.20
2018-05-09T11:51:49.243Z,26.20
2018-05-09T11:54:23.581Z,26.30
2018-05-09T11:56:57.869Z,26.40
2018-05-09T11:59:32.209Z,26.50
2018-05-09T12:02:06.619Z,26.50
2018-05-09T12:04:41.026Z,26.50
2018-05-09T12:07:15.447Z,26.60
2018-05-09T12:09:49.734Z,26.50
2018-05-09T12:12:24.181Z,26.60
2018-05-09T12:14:58.480Z,26.50
2018-05-09T12:17:33.129Z,26.50
2018-05-09T12:20:07.408Z,26.50
2018-05-09T12:22:41.873Z,26.50
2018-05-09T12:25:16.185Z,26.70
2018-05-09T12:27:50.715Z,26.70
2018-05-09T12:30:25.325Z,26.70
2018-05-09T12:32:59.627Z,26.70
2018-05-09T12:35:33.992Z,26.60
2018-05-09T12:38:08.413Z,26.60
2018-05-09T12:40:42.702Z,26.60
2018-05-09T12:43:17.058Z,26.70
2018-05-09T12:45:51.329Z,26.70
2018-05-09T12:48:25.759Z,26.60
2018-05-09T12:51:00.173Z,26.80
2018-05-09T12:53:35.425Z,26.80
2018-05-09T12:56:09.757Z,26.80
2018-05-09T12:58:44.202Z,26.80
2018-05-09T13:01:18.703Z,26.90
2018-05-09T13:03:53.279Z,26.90
2018-05-09T13:06:29.145Z,27.20
2018-05-09T13:09:03.478Z,27.20
2018-05-09T13:11:37.916Z,27.10
2018-05-09T13:14:12.216Z,27.20
2018-05-09T13:16:47.473Z,27.20
2018-05-09T13:19:21.842Z,27.10
2018-05-09T13:21:56.408Z,27.30
2018-05-09T13:24:30.892Z,27.40
2018-05-09T13:27:05.312Z,27.50
2018-05-09T13:29:39.589Z,27.50
2018-05-09T13:32:14.056Z,27.40
2018-05-09T13:34:48.282Z,27.40
2018-05-09T13:37:22.584Z,27.40
2018-05-09T13:39:57.221Z,27.40
2018-05-09T13:42:31.769Z,27.30
2018-05-09T13:45:06.288Z,27.30
2018-05-09T13:47:40.574Z,27.20
2018-05-09T13:50:15.232Z,27.20
2018-05-09T13:52:51.144Z,27.10
2018-05-09T13:55:25.817Z,27.00
2018-05-09T13:58:00.337Z,27.20
2018-05-09T14:00:34.738Z,27.20
2018-05-09T14:03:09.083Z,27.20
2018-05-09T14:05:43.329Z,27.20
2018-05-09T14:08:18.705Z,27.30
2018-05-09T14:10:53.026Z,27.20
2018-05-09T14:13:27.497Z,27.20
2018-05-09T14:16:01.969Z,27.20
2018-05-09T14:18:37.016Z,27.30
2018-05-09T14:21:11.436Z,27.20
2018-05-09T14:23:45.862Z,27.20
2018-05-09T14:26:20.370Z,27.20
2018-05-09T14:28:54.870Z,27.20
2018-05-09T14:31:29.349Z,27.10
2018-05-09T14:34:04.647Z,27.00
2018-05-09T14:36:39.027Z,27.00
2018-05-09T14:39:13.424Z,27.00
2018-05-09T14:41:47.945Z,26.90
2018-05-09T14:44:23.082Z,26.70
2018-05-09T14:46:58.933Z,26.60
2018-05-09T14:49:33.470Z,26.60
2018-05-09T14:52:08.477Z,26.50
2018-05-09T14:54:42.832Z,26.50
2018-05-09T14:57:17.145Z,26.40
2018-05-09T14:59:51.608Z,26.50
2018-05-09T15:02:26.776Z,26.50
2018-05-09T15:05:01.206Z,26.50
2018-05-09T15:07:35.632Z,26.50
2018-05-09T15:10:10.152Z,26.60
2018-05-09T15:12:44.668Z,26.60
2018-05-09T15:15:18.996Z,26.70
2018-05-09T15:17:53.604Z,26.70
2018-05-09T15:20:28.964Z,26.70
2018-05-09T15:23:03.312Z,26.60
2018-05-09T15:25:37.908Z,26.70
2018-05-09T15:28:12.436Z,26.70
2018-05-09T15:30:46.774Z,26.70
2018-05-09T15:33:21.176Z,26.70
2018-05-09T15:35:55.800Z,26.70
2018-05-09T15:38:30.424Z,26.70
2018-05-09T15:41:04.868Z,26.70
2018-05-09T15:43:39.249Z,26.70
2018-05-09T15:46:13.576Z,26.70
2018-05-09T15:48:47.987Z,26.70
2018-05-09T15:51:22.532Z,26.70
2018-05-09T15:53:57.738Z,26.70
2018-05-09T15:56:32.117Z,26.60
2018-05-09T15:59:06.814Z,26.60
2018-05-09T16:01:41.953Z,26.60
2018-05-09T16:04:16.621Z,26.60
2018-05-09T16:06:51.300Z,26.70
2018-05-09T16:09:25.571Z,26.60
2018-05-09T16:12:00.036Z,26.70
2018-05-09T16:14:34.488Z,26.60
2018-05-09T16:17:08.857Z,26.60
2018-05-09T16:19:43.300Z,26.60
2018-05-09T16:22:17.778Z,26.60
2018-05-09T16:24:52.121Z,26.60
2018-05-09T16:27:26.412Z,26.60
2018-05-09T16:30:01.008Z,26.60
2018-05-09T16:32:36.916Z,26.50
2018-05-09T16:35:11.301Z,26.50
2018-05-09T16:37:45.984Z,26.60
2018-05-09T16:40:20.357Z,26.60
2018-05-09T16:42:55.404Z,26.60
2018-05-09T16:45:29.661Z,26.60
2018-05-09T16:48:03.952Z,26.50
2018-05-09T16:50:39.836Z,26.30
2018-05-09T16:53:14.563Z,26.20
2018-05-09T16:55:49.081Z,26.30
2018-05-09T16:58:23.609Z,26.30
2018-05-09T17:00:57.980Z,26.40
2018-05-09T17:03:33.172Z,26.30
2018-05-09T17:06:07.584Z,26.30
2018-05-09T17:08:41.952Z,26.30
2018-05-09T17:11:16.408Z,26.30
2018-05-09T17:13:51.796Z,26.30
2018-05-09T17:16:26.289Z,26.30
2018-05-09T17:19:01.144Z,26.20
2018-05-09T17:21:49.050Z,26.10
2018-05-09T17:24:23.402Z,26.10
2018-05-09T17:26:57.699Z,26.10
2018-05-09T17:29:32.032Z,26.10
2018-05-09T17:32:06.375Z,26.00
2018-05-09T17:34:40.749Z,26.00
2018-05-09T17:37:15.304Z,25.90
2018-05-09T17:39:49.727Z,25.80
2018-05-09T17:42:24.104Z,25.80
2018-05-09T17:44:58.365Z,25.80
2018-05-09T17:47:32.980Z,25.70
2018-05-09T17:50:07.430Z,25.60
2018-05-09T17:52:42.000Z,25.50
2018-05-09T17:55:16.420Z,25.50
2018-05-09T17:57:50.853Z,25.40
2018-05-09T18:00:25.271Z,25.40
2018-05-09T18:02:59.600Z,25.40
2018-05-09T18:05:34.028Z,25.30
2018-05-09T18:08:08.561Z,25.30
2018-05-09T18:10:43.672Z,25.20
2018-05-09T18:13:17.944Z,25.20
2018-05-09T18:15:52.318Z,25.20
2018-05-09T18:18:26.752Z,25.20
2018-05-09T18:21:01.173Z,25.20
2018-05-09T18:23:35.467Z,25.10
2018-05-09T18:26:10.000Z,25.20
2018-05-09T18:28:44.427Z,25.20
2018-05-09T18:31:19.672Z,25.10
2018-05-09T18:33:54.248Z,25.10
2018-05-09T18:36:28.619Z,25.10
2018-05-09T18:39:02.905Z,25.20
2018-05-09T18:41:37.152Z,25.20
2018-05-09T18:44:11.774Z,25.20
2018-05-09T18:46:45.964Z,25.20
2018-05-09T18:49:20.339Z,25.20
2018-05-09T18:51:54.704Z,25.20
2018-05-09T18:54:29.014Z,25.20
2018-05-09T18:57:03.353Z,25.30
2018-05-09T18:59:38.390Z,25.30
2018-05-09T19:02:12.716Z,25.30
2018-05-09T19:04:47.339Z,25.30
2018-05-09T19:07:22.468Z,25.30
2018-05-09T19:09:56.906Z,25.20
2018-05-09T19:12:31.561Z,25.30
2018-05-09T19:15:06.061Z,25.30
2018-05-09T19:17:40.472Z,25.30
2018-05-09T19:20:14.832Z,24.50
2018-05-09T19:22:49.402Z,24.10
2018-05-09T19:25:23.636Z,23.80
2018-05-09T19:27:58.168Z,23.70
2018-05-09T19:30:32.776Z,23.50
2018-05-09T19:33:07.301Z,23.40
2018-05-09T19:35:41.729Z,23.30
2018-05-09T19:38:16.154Z,23.30
2018-05-09T19:40:50.409Z,23.20
2018-05-09T19:43:24.757Z,23.10
2018-05-09T19:45:59.308Z,23.10
2018-05-09T19:48:34.413Z,22.90
2018-05-09T19:51:08.724Z,22.90
2018-05-09T19:53:43.892Z,22.90
2018-05-09T19:56:19.020Z,22.90
2018-05-09T19:58:53.761Z,22.80
2018-05-09T20:01:28.192Z,22.90
2018-05-09T20:04:02.501Z,22.90
2018-05-09T20:06:36.952Z,22.80
2018-05-09T20:09:11.404Z,22.70
2018-05-09T20:11:45.748Z,22.60
2018-05-09T20:14:20.388Z,22.70
2018-05-09T20:16:55.017Z,22.80
2018-05-09T20:19:29.301Z,22.90
2018-05-09T20:22:03.948Z,22.80
2018-05-09T20:24:38.207Z,22.80
2018-05-09T20:27:12.680Z,22.80
2018-05-09T20:29:47.220Z,22.80
2018-05-09T20:32:40.512Z,22.90
2018-05-09T20:35:14.985Z,22.80
2018-05-09T20:37:49.300Z,22.80
2018-05-09T20:40:23.729Z,22.80
2018-05-09T20:42:58.356Z,22.80
2018-05-09T20:45:32.630Z,22.80
2018-05-09T20:48:07.932Z,22.60
2018-05-09T20:50:43.036Z,22.60
2018-05-09T20:53:17.521Z,22.50
2018-05-09T20:55:51.810Z,22.40
2018-05-09T20:58:26.181Z,22.30
2018-05-09T21:01:00.484Z,22.40
2018-05-09T21:03:34.960Z,22.30
2018-05-09T21:06:09.356Z,22.30
2018-05-09T21:08:43.765Z,22.20
2018-05-09T21:11:18.033Z,22.30
2018-05-09T21:13:53.029Z,22.00
2018-05-09T21:16:27.463Z,22.00
2018-05-09T21:19:01.801Z,21.90
2018-05-09T21:21:36.131Z,21.80
2018-05-09T21:24:10.433Z,21.80
2018-05-09T21:26:44.824Z,21.70
2018-05-09T21:29:19.377Z,21.70
2018-05-09T21:31:53.869Z,21.60
2018-05-09T21:34:29.037Z,21.50
2018-05-09T21:37:03.355Z,21.50
2018-05-09T21:39:37.893Z,21.50
2018-05-09T21:42:12.378Z,21.60
2018-05-09T21:44:47.604Z,21.60
2018-05-09T21:47:22.753Z,21.60
2018-05-09T21:49:57.102Z,21.60
2018-05-09T21:52:31.493Z,21.50
2018-05-09T21:55:06.036Z,21.50
2018-05-09T21:57:40.664Z,21.40
2018-05-09T22:00:14.917Z,21.30
2018-05-09T22:02:49.564Z,21.00
2018-05-09T22:05:24.753Z,20.80
2018-05-09T22:07:59.109Z,20.70
2018-05-09T22:10:33.604Z,20.90
2018-05-09T22:13:07.967Z,21.00
2018-05-09T22:15:42.438Z,21.00
2018-05-09T22:18:16.952Z,21.10
2018-05-09T22:20:51.580Z,21.00
2018-05-09T22:23:26.005Z,20.90
2018-05-09T22:26:00.421Z,20.70
2018-05-09T22:28:34.740Z,20.50
2018-05-09T22:31:09.064Z,20.40
2018-05-09T22:33:43.483Z,20.30
2018-05-09T22:36:17.764Z,20.20
2018-05-09T22:38:52.212Z,20.10
2018-05-09T22:41:26.708Z,20.10
2018-05-09T22:44:01.174Z,20.10
2018-05-09T22:46:35.502Z,20.20
2018-05-09T22:49:09.885Z,20.30
2018-05-09T22:51:44.184Z,20.30
2018-05-09T22:54:18.644Z,20.40
2018-05-09T22:56:52.955Z,20.40
2018-05-09T22:59:27.395Z,20.30
2018-05-09T23:02:01.885Z,20.70
2018-05-09T23:04:36.296Z,20.60
2018-05-09T23:07:10.844Z,20.50
2018-05-09T23:09:45.678Z,20.50
2018-05-09T23:12:20.001Z,20.50
2018-05-09T23:14:54.388Z,20.80
2018-05-09T23:17:29.421Z,21.00
2018-05-09T23:20:03.720Z,20.90
2018-05-09T23:22:38.134Z,21.00
2018-05-09T23:25:12.495Z,21.10
2018-05-09T23:27:47.041Z,21.10
2018-05-09T23:30:21.453Z,21.00
2018-05-09T23:32:55.840Z,21.10
2018-05-09T23:35:30.286Z,21.10
2018-05-09T23:38:04.808Z,21.10
2018-05-09T23:40:39.327Z,21.10
2018-05-09T23:43:13.638Z,21.00
2018-05-09T23:45:47.897Z,21.00
2018-05-09T23:48:22.282Z,20.90
2018-05-09T23:50:57.309Z,20.60
2018-05-09T23:53:32.448Z,20.60
2018-05-09T23:56:06.958Z,20.60
2018-05-09T23:58:41.511Z,20.60
